createdAt,value
2017-08-27T00:00:49.112Z,27.5
2017-08-27T00:01:50.549Z,27.6
2017-08-27T00:02:52.677Z,27.5
2017-08-27T00:03:54.807Z,27.5
2017-08-27T00:04:56.603Z,27.5
2017-08-27T00:05:58.063Z,27.5
2017-08-27T00:07:00.193Z,27.5
2017-08-27T00:08:01.986Z,27.5
2017-08-27T00:09:04.115Z,27.6
2017-08-27T00:10:06.249Z,27.5
2017-08-27T00:11:08.045Z,27.5
2017-08-27T00:12:09.841Z,27.5
2017-08-27T00:13:11.981Z,27.6
2017-08-27T00:14:14.101Z,27.5
2017-08-27T00:15:16.230Z,27.5
2017-08-27T00:16:17.668Z,27.5
2017-08-27T00:17:19.798Z,27.6
2017-08-27T00:18:21.573Z,27.5
2017-08-27T00:19:23.702Z,27.5
2017-08-27T00:20:25.497Z,27.4
2017-08-27T00:21:27.272Z,27.5
2017-08-27T00:22:29.069Z,27.6
2017-08-27T00:23:31.198Z,27.6
2017-08-27T00:24:33.327Z,27.5
2017-08-27T00:25:34.789Z,27.5
2017-08-27T00:26:36.585Z,27.5
2017-08-27T00:27:38.380Z,27.4
2017-08-27T00:28:40.211Z,27.5
2017-08-27T00:29:42.345Z,27.5
2017-08-27T00:30:44.153Z,27.5
2017-08-27T00:31:45.948Z,27.5
2017-08-27T00:32:47.745Z,27.4
2017-08-27T00:33:49.543Z,27.5
2017-08-27T00:34:51.674Z,27.5
2017-08-27T00:35:53.804Z,27.4
2017-08-27T00:36:55.935Z,27.6
2017-08-27T00:37:58.064Z,27.4
2017-08-27T00:39:00.204Z,27.5
2017-08-27T00:40:01.670Z,27.4
2017-08-27T00:41:03.132Z,27.5
2017-08-27T00:42:04.906Z,27.5
2017-08-27T00:43:07.035Z,27.4
2017-08-27T00:44:08.808Z,27.4
2017-08-27T00:45:10.271Z,27.5
2017-08-27T00:46:12.400Z,27.5
2017-08-27T00:47:14.542Z,27.5
2017-08-27T00:48:16.003Z,27.4
2017-08-27T00:49:17.781Z,27.5
2017-08-27T00:50:19.222Z,27.4
2017-08-27T00:51:21.016Z,27.4
2017-08-27T00:52:22.455Z,27.5
2017-08-27T00:53:23.894Z,27.5
2017-08-27T00:54:26.068Z,27.4
2017-08-27T00:55:27.192Z,27.5
2017-08-27T00:56:28.966Z,27.5
2017-08-27T00:57:30.425Z,27.5
2017-08-27T00:58:32.221Z,27.5
2017-08-27T00:59:34.353Z,27.4
2017-08-27T01:00:36.484Z,27.5
2017-08-27T01:01:38.613Z,27.4
2017-08-27T01:02:40.389Z,27.4
2017-08-27T01:03:41.520Z,27.5
2017-08-27T01:04:42.960Z,27.5
2017-08-27T01:05:45.093Z,27.5
2017-08-27T01:06:47.233Z,27.5
2017-08-27T01:07:49.026Z,27.5
2017-08-27T01:08:51.157Z,27.5
2017-08-27T01:09:52.954Z,27.5
2017-08-27T01:10:54.726Z,27.5
2017-08-27T01:11:56.522Z,27.5
2017-08-27T01:12:57.959Z,27.5
2017-08-27T01:13:59.735Z,27.4
2017-08-27T01:15:01.533Z,27.4
2017-08-27T01:16:03.307Z,27.4
2017-08-27T01:17:05.439Z,27.5
2017-08-27T01:18:07.568Z,27.5
2017-08-27T01:19:09.701Z,27.4
2017-08-27T01:20:11.495Z,27.4
2017-08-27T01:21:12.599Z,27.4
2017-08-27T01:22:14.445Z,27.4
2017-08-27T01:23:16.275Z,27.4
2017-08-27T01:24:18.068Z,27.4
2017-08-27T01:25:20.236Z,27.5
2017-08-27T01:26:22.370Z,27.5
2017-08-27T01:27:24.219Z,27.3
2017-08-27T01:28:26.018Z,27.4
2017-08-27T01:29:27.811Z,27.4
2017-08-27T01:30:29.613Z,27.4
2017-08-27T01:31:31.740Z,27.4
2017-08-27T01:32:33.537Z,27.5
2017-08-27T01:33:35.334Z,27.4
2017-08-27T01:34:36.460Z,27.4
2017-08-27T01:35:37.562Z,27.5
2017-08-27T01:36:39.004Z,27.5
2017-08-27T01:37:40.780Z,27.4
2017-08-27T01:38:42.574Z,27.4
2017-08-27T01:39:44.729Z,27.4
2017-08-27T01:40:46.860Z,27.4
2017-08-27T01:41:48.990Z,27.3
2017-08-27T01:42:50.802Z,27.6
2017-08-27T01:43:52.598Z,27.4
2017-08-27T01:44:54.393Z,27.4
2017-08-27T01:45:56.522Z,27.4
2017-08-27T01:46:57.987Z,27.5
2017-08-27T01:47:59.756Z,27.5
2017-08-27T01:49:01.887Z,27.4
2017-08-27T01:50:03.662Z,27.4
2017-08-27T01:51:05.440Z,27.5
2017-08-27T01:52:06.880Z,27.4
2017-08-27T01:53:08.344Z,27.3
2017-08-27T01:54:10.476Z,27.5
2017-08-27T01:55:11.934Z,27.3
2017-08-27T01:56:14.061Z,27.4
2017-08-27T01:57:16.195Z,27.4
2017-08-27T01:58:17.659Z,27.5
2017-08-27T01:59:19.117Z,27.5
2017-08-27T02:00:20.556Z,27.4
2017-08-27T02:01:22.330Z,27.4
2017-08-27T02:02:23.793Z,27.4
2017-08-27T02:03:25.236Z,27.4
2017-08-27T02:04:27.031Z,27.4
2017-08-27T02:05:29.162Z,27.4
2017-08-27T02:06:30.624Z,27.4
2017-08-27T02:07:32.755Z,27.4
2017-08-27T02:08:34.554Z,27.4
2017-08-27T02:09:36.347Z,27.4
2017-08-27T02:10:38.493Z,27.5
2017-08-27T02:11:40.289Z,27.5
2017-08-27T02:12:42.421Z,27.4
2017-08-27T02:13:43.865Z,27.5
2017-08-27T02:14:45.994Z,27.4
2017-08-27T02:15:47.794Z,27.4
2017-08-27T02:16:49.237Z,27.4
2017-08-27T02:17:50.683Z,27.4
2017-08-27T02:18:52.811Z,27.4
2017-08-27T02:19:54.271Z,27.4
2017-08-27T02:20:56.067Z,27.4
2017-08-27T02:21:57.552Z,27.5
2017-08-27T02:22:59.347Z,27.4
2017-08-27T02:24:01.476Z,27.4
2017-08-27T02:25:03.608Z,27.4
2017-08-27T02:26:05.401Z,27.5
2017-08-27T02:27:07.531Z,27.4
2017-08-27T02:28:09.327Z,27.5
2017-08-27T02:29:11.455Z,27.4
2017-08-27T02:30:13.251Z,27.5
2017-08-27T02:31:15.048Z,27.5
2017-08-27T02:32:17.177Z,27.5
2017-08-27T02:33:18.619Z,27.4
2017-08-27T02:34:20.067Z,27.4
2017-08-27T02:35:22.244Z,27.4
2017-08-27T02:36:24.044Z,27.5
2017-08-27T02:37:26.175Z,27.5
2017-08-27T02:38:27.616Z,27.4
2017-08-27T02:39:29.746Z,27.5
2017-08-27T02:40:31.542Z,27.5
2017-08-27T02:41:33.343Z,27.5
2017-08-27T02:42:35.141Z,27.5
2017-08-27T02:43:37.270Z,27.5
2017-08-27T02:44:39.402Z,27.3
2017-08-27T02:45:41.196Z,27.4
2017-08-27T02:46:42.991Z,27.4
2017-08-27T02:47:44.447Z,27.5
2017-08-27T02:48:46.576Z,27.5
2017-08-27T02:49:48.706Z,27.4
2017-08-27T02:50:50.500Z,27.5
2017-08-27T02:51:51.628Z,27.4
2017-08-27T02:52:53.419Z,27.4
2017-08-27T02:53:55.210Z,27.5
2017-08-27T02:54:56.316Z,27.4
2017-08-27T02:55:57.757Z,27.4
2017-08-27T02:56:59.885Z,27.4
2017-08-27T02:58:01.679Z,27.5
2017-08-27T02:59:03.478Z,27.4
2017-08-27T03:00:05.605Z,27.4
2017-08-27T03:01:07.736Z,27.4
2017-08-27T03:02:09.206Z,27.4
2017-08-27T03:03:10.980Z,27.5
2017-08-27T03:04:12.422Z,27.4
2017-08-27T03:05:13.894Z,27.4
2017-08-27T03:06:15.015Z,27.4
2017-08-27T03:07:16.454Z,27.4
2017-08-27T03:08:18.589Z,27.4
2017-08-27T03:09:20.389Z,27.3
2017-08-27T03:10:21.494Z,27.4
2017-08-27T03:11:22.932Z,27.4
2017-08-27T03:12:24.728Z,27.4
2017-08-27T03:13:26.188Z,27.4
2017-08-27T03:14:28.321Z,27.4
2017-08-27T03:15:30.114Z,27.4
2017-08-27T03:16:31.240Z,27.4
2017-08-27T03:17:33.052Z,27.3
2017-08-27T03:18:34.513Z,27.4
2017-08-27T03:19:36.319Z,27.4
2017-08-27T03:20:38.095Z,27.4
2017-08-27T03:21:40.225Z,27.4
2017-08-27T03:22:42.020Z,27.4
2017-08-27T03:23:43.815Z,27.4
2017-08-27T03:24:45.611Z,27.3
2017-08-27T03:25:47.741Z,27.4
2017-08-27T03:26:49.206Z,27.4
2017-08-27T03:27:51.000Z,27.4
2017-08-27T03:28:52.442Z,27.3
2017-08-27T03:29:54.288Z,27.4
2017-08-27T03:30:55.393Z,27.4
2017-08-27T03:31:57.523Z,27.4
2017-08-27T03:32:59.655Z,27.4
2017-08-27T03:34:01.092Z,27.4
2017-08-27T03:35:02.886Z,27.3
2017-08-27T03:36:04.681Z,27.4
2017-08-27T03:37:06.499Z,27.4
2017-08-27T03:38:08.273Z,27.4
2017-08-27T03:39:09.752Z,27.3
2017-08-27T03:40:11.882Z,27.4
2017-08-27T03:41:13.331Z,27.4
2017-08-27T03:42:15.450Z,27.3
2017-08-27T03:43:17.582Z,27.4
2017-08-27T03:44:19.750Z,27.4
2017-08-27T03:45:21.548Z,27.3
2017-08-27T03:46:23.345Z,27.3
2017-08-27T03:47:25.475Z,27.3
2017-08-27T03:48:27.250Z,27.4
2017-08-27T03:49:29.381Z,27.4
2017-08-27T03:50:31.176Z,27.4
2017-08-27T03:51:32.636Z,27.3
2017-08-27T03:52:34.763Z,27.4
2017-08-27T03:53:36.201Z,27.4
2017-08-27T03:54:38.331Z,27.3
2017-08-27T03:55:39.790Z,27.4
2017-08-27T03:56:41.564Z,27.4
2017-08-27T03:57:43.357Z,27.3
2017-08-27T03:58:45.131Z,27.3
2017-08-27T03:59:46.585Z,27.4
2017-08-27T04:00:48.361Z,27.4
2017-08-27T04:01:50.490Z,27.4
2017-08-27T04:02:52.285Z,27.3
2017-08-27T04:03:54.079Z,27.3
2017-08-27T04:04:56.211Z,27.3
2017-08-27T04:05:58.007Z,27.3
2017-08-27T04:06:59.805Z,27.3
2017-08-27T04:08:01.579Z,27.4
2017-08-27T04:09:03.377Z,27.4
2017-08-27T04:10:05.508Z,27.3
2017-08-27T04:11:07.307Z,27.4
2017-08-27T04:12:09.181Z,27.3
2017-08-27T04:13:10.973Z,27.3
2017-08-27T04:14:12.078Z,27.3
2017-08-27T04:15:13.871Z,27.3
2017-08-27T04:16:15.315Z,27.4
2017-08-27T04:17:17.110Z,27.4
2017-08-27T04:18:18.552Z,27.3
2017-08-27T04:19:20.322Z,27.3
2017-08-27T04:20:21.762Z,27.4
2017-08-27T04:21:23.228Z,27.3
2017-08-27T04:22:24.353Z,27.3
2017-08-27T04:23:26.151Z,27.4
2017-08-27T04:24:27.612Z,27.4
2017-08-27T04:25:29.742Z,27.3
2017-08-27T04:26:31.536Z,27.4
2017-08-27T04:27:33.667Z,27.4
2017-08-27T04:28:35.796Z,27.3
2017-08-27T04:29:37.258Z,27.3
2017-08-27T04:30:39.051Z,27.3
2017-08-27T04:31:40.848Z,27.3
2017-08-27T04:32:41.952Z,27.4
2017-08-27T04:33:43.407Z,27.3
2017-08-27T04:34:45.539Z,27.4
2017-08-27T04:35:46.645Z,27.3
2017-08-27T04:36:48.776Z,27.3
2017-08-27T04:37:50.590Z,27.3
2017-08-27T04:38:52.049Z,27.4
2017-08-27T04:39:53.155Z,27.3
2017-08-27T04:40:54.620Z,27.4
2017-08-27T04:41:56.395Z,27.4
2017-08-27T04:42:58.529Z,27.4
2017-08-27T04:44:00.658Z,27.3
2017-08-27T04:45:02.804Z,27.3
2017-08-27T04:46:04.269Z,27.4
2017-08-27T04:47:06.060Z,27.3
2017-08-27T04:48:08.190Z,27.3
2017-08-27T04:49:09.651Z,27.4
2017-08-27T04:50:11.109Z,27.3
2017-08-27T04:51:12.553Z,27.4
2017-08-27T04:52:14.684Z,27.4
2017-08-27T04:53:16.482Z,27.3
2017-08-27T04:54:18.612Z,27.3
2017-08-27T04:55:20.738Z,27.3
2017-08-27T04:56:22.876Z,27.3
2017-08-27T04:57:24.670Z,27.4
2017-08-27T04:58:26.443Z,27.3
2017-08-27T04:59:27.884Z,27.4
2017-08-27T05:00:29.684Z,27.4
2017-08-27T05:01:31.162Z,27.4
2017-08-27T05:02:33.295Z,27.4
2017-08-27T05:03:34.735Z,27.4
2017-08-27T05:04:36.871Z,27.3
2017-08-27T05:05:38.662Z,27.3
2017-08-27T05:06:39.769Z,27.3
2017-08-27T05:07:41.567Z,27.3
2017-08-27T05:08:43.361Z,27.3
2017-08-27T05:09:45.494Z,27.4
2017-08-27T05:10:46.597Z,27.4
2017-08-27T05:11:48.727Z,27.3
2017-08-27T05:12:50.521Z,27.3
2017-08-27T05:13:52.318Z,27.4
2017-08-27T05:14:54.095Z,27.4
2017-08-27T05:15:56.229Z,27.4
2017-08-27T05:16:58.025Z,27.4
2017-08-27T05:18:00.158Z,27.4
2017-08-27T05:19:01.930Z,27.4
2017-08-27T05:20:03.394Z,27.4
2017-08-27T05:21:05.521Z,27.4
2017-08-27T05:22:07.653Z,27.4
2017-08-27T05:23:09.435Z,27.4
2017-08-27T05:24:10.895Z,27.4
2017-08-27T05:25:13.022Z,27.4
2017-08-27T05:26:14.130Z,27.3
2017-08-27T05:27:15.906Z,27.4
2017-08-27T05:28:18.044Z,27.4
2017-08-27T05:29:19.145Z,27.4
2017-08-27T05:30:20.996Z,27.4
2017-08-27T05:31:22.100Z,27.4
2017-08-27T05:32:24.232Z,27.4
2017-08-27T05:33:26.029Z,27.3
2017-08-27T05:34:27.829Z,27.3
2017-08-27T05:35:29.634Z,27.3
2017-08-27T05:36:31.414Z,27.3
2017-08-27T05:37:33.213Z,27.3
2017-08-27T05:38:35.008Z,27.3
2017-08-27T05:39:36.451Z,27.3
2017-08-27T05:40:37.891Z,27.4
2017-08-27T05:41:40.019Z,27.3
2017-08-27T05:42:41.814Z,27.3
2017-08-27T05:43:43.611Z,27.4
2017-08-27T05:44:45.407Z,27.3
2017-08-27T05:45:47.204Z,27.3
2017-08-27T05:46:48.342Z,27.4
2017-08-27T05:47:50.474Z,27.4
2017-08-27T05:48:52.603Z,27.4
2017-08-27T05:49:54.064Z,27.4
2017-08-27T05:50:56.211Z,27.4
2017-08-27T05:51:58.002Z,27.3
2017-08-27T05:53:00.145Z,27.4
2017-08-27T05:54:01.611Z,27.3
2017-08-27T05:55:02.715Z,27.4
2017-08-27T05:56:04.509Z,27.4
2017-08-27T05:57:05.614Z,27.4
2017-08-27T05:58:06.739Z,27.4
2017-08-27T05:59:08.869Z,27.3
2017-08-27T06:00:10.645Z,27.4
2017-08-27T06:01:12.102Z,27.4
2017-08-27T06:02:14.238Z,27.4
2017-08-27T06:03:15.700Z,27.4
2017-08-27T06:04:17.835Z,27.4
2017-08-27T06:05:19.611Z,27.4
2017-08-27T06:06:21.745Z,27.3
2017-08-27T06:07:23.515Z,27.4
2017-08-27T06:08:25.644Z,27.4
2017-08-27T06:09:27.423Z,27.4
2017-08-27T06:10:28.886Z,27.5
2017-08-27T06:11:31.022Z,27.4
2017-08-27T06:12:32.817Z,27.3
2017-08-27T06:13:34.949Z,27.4
2017-08-27T06:14:36.790Z,27.4
2017-08-27T06:15:38.585Z,27.4
2017-08-27T06:16:40.049Z,27.5
2017-08-27T06:17:41.514Z,27.4
2017-08-27T06:18:43.352Z,27.4
2017-08-27T06:19:45.151Z,27.4
2017-08-27T06:20:46.285Z,27.3
2017-08-27T06:21:47.726Z,27.4
2017-08-27T06:22:49.521Z,27.4
2017-08-27T06:23:51.319Z,27.3
2017-08-27T06:24:53.453Z,27.4
2017-08-27T06:25:55.228Z,27.4
2017-08-27T06:26:57.025Z,27.5
2017-08-27T06:27:58.489Z,27.4
2017-08-27T06:29:00.288Z,27.4
2017-08-27T06:30:02.425Z,27.4
2017-08-27T06:31:03.529Z,27.5
2017-08-27T06:32:05.307Z,27.4
2017-08-27T06:33:06.750Z,27.4
2017-08-27T06:34:08.542Z,27.4
2017-08-27T06:35:10.007Z,27.4
2017-08-27T06:36:12.142Z,27.4
2017-08-27T06:37:14.271Z,27.4
2017-08-27T06:38:16.066Z,27.4
2017-08-27T06:39:18.198Z,27.4
2017-08-27T06:40:19.315Z,27.4
2017-08-27T06:41:21.078Z,27.4
2017-08-27T06:42:23.207Z,27.4
2017-08-27T06:43:24.649Z,27.4
2017-08-27T06:44:26.422Z,27.5
2017-08-27T06:45:28.218Z,27.5
2017-08-27T06:46:30.353Z,27.5
2017-08-27T06:47:32.149Z,27.5
2017-08-27T06:48:34.278Z,27.5
2017-08-27T06:49:35.744Z,27.5
2017-08-27T06:50:37.880Z,27.5
2017-08-27T06:51:39.672Z,27.5
2017-08-27T06:52:41.802Z,27.4
2017-08-27T06:53:43.246Z,27.4
2017-08-27T06:54:45.045Z,27.4
2017-08-27T06:55:47.183Z,27.4
2017-08-27T06:56:49.033Z,27.4
2017-08-27T06:57:51.164Z,27.5
2017-08-27T06:58:52.964Z,27.4
2017-08-27T06:59:54.762Z,27.4
2017-08-27T07:00:56.891Z,27.4
2017-08-27T07:01:59.021Z,27.5
2017-08-27T07:03:00.817Z,27.5
2017-08-27T07:04:02.599Z,27.5
2017-08-27T07:05:04.397Z,27.5
2017-08-27T07:06:06.530Z,27.5
2017-08-27T07:07:07.975Z,27.5
2017-08-27T07:08:09.775Z,27.5
2017-08-27T07:09:11.904Z,27.5
2017-08-27T07:10:13.028Z,27.4
2017-08-27T07:11:14.826Z,27.5
2017-08-27T07:12:16.621Z,27.5
2017-08-27T07:13:18.419Z,27.6
2017-08-27T07:14:20.197Z,27.6
2017-08-27T07:15:21.995Z,27.5
2017-08-27T07:16:23.436Z,27.5
2017-08-27T07:17:25.567Z,27.5
2017-08-27T07:18:27.700Z,27.5
2017-08-27T07:19:28.833Z,27.5
2017-08-27T07:20:30.969Z,27.6
2017-08-27T07:21:33.103Z,27.5
2017-08-27T07:22:35.238Z,27.5
2017-08-27T07:23:36.343Z,27.6
2017-08-27T07:24:38.143Z,27.5
2017-08-27T07:25:39.589Z,27.5
2017-08-27T07:26:41.049Z,27.5
2017-08-27T07:27:42.895Z,27.5
2017-08-27T07:28:44.692Z,27.6
2017-08-27T07:29:46.829Z,27.6
2017-08-27T07:30:48.273Z,27.5
2017-08-27T07:31:50.071Z,27.5
2017-08-27T07:32:51.543Z,27.6
2017-08-27T07:33:52.996Z,27.6
2017-08-27T07:34:54.440Z,27.6
2017-08-27T07:35:56.237Z,27.6
2017-08-27T07:36:58.375Z,27.6
2017-08-27T07:38:00.508Z,27.6
2017-08-27T07:39:02.638Z,27.6
2017-08-27T07:40:04.078Z,27.7
2017-08-27T07:41:05.520Z,27.6
2017-08-27T07:42:07.294Z,27.7
2017-08-27T07:43:09.429Z,27.5
2017-08-27T07:44:10.868Z,27.7
2017-08-27T07:45:12.642Z,27.7
2017-08-27T07:46:14.416Z,27.7
2017-08-27T07:47:16.553Z,27.7
2017-08-27T07:48:17.995Z,27.7
2017-08-27T07:49:19.770Z,27.7
2017-08-27T07:50:21.232Z,27.7
2017-08-27T07:51:22.705Z,27.6
2017-08-27T07:52:24.168Z,27.7
2017-08-27T07:53:25.273Z,27.6
2017-08-27T07:54:27.071Z,27.7
2017-08-27T07:55:28.874Z,27.7
2017-08-27T07:56:30.340Z,27.7
2017-08-27T07:57:32.137Z,27.7
2017-08-27T07:58:33.936Z,27.6
2017-08-27T07:59:36.068Z,27.7
2017-08-27T08:00:38.201Z,27.7
2017-08-27T08:01:39.665Z,27.7
2017-08-27T08:02:41.128Z,27.7
2017-08-27T08:03:42.927Z,27.7
2017-08-27T08:04:44.033Z,27.8
2017-08-27T08:05:45.831Z,27.7
2017-08-27T08:06:47.607Z,27.8
2017-08-27T08:07:49.738Z,27.8
2017-08-27T08:08:51.178Z,27.8
2017-08-27T08:09:52.988Z,27.8
2017-08-27T08:10:54.429Z,27.7
2017-08-27T08:11:55.874Z,27.8
2017-08-27T08:12:56.980Z,27.7
2017-08-27T08:13:58.829Z,27.8
2017-08-27T08:14:59.934Z,27.8
2017-08-27T08:16:02.067Z,27.9
2017-08-27T08:17:03.529Z,27.8
2017-08-27T08:18:05.325Z,27.8
2017-08-27T08:19:06.815Z,27.8
2017-08-27T08:20:08.256Z,27.8
2017-08-27T08:21:09.726Z,27.9
2017-08-27T08:22:10.495Z,27.8
2017-08-27T08:23:12.627Z,27.8
2017-08-27T08:24:14.069Z,27.8
2017-08-27T08:25:15.533Z,27.8
2017-08-27T08:26:17.333Z,27.8
2017-08-27T08:27:19.130Z,27.8
2017-08-27T08:28:20.575Z,27.9
2017-08-27T08:29:22.365Z,27.9
2017-08-27T08:30:24.160Z,27.8
2017-08-27T08:31:25.960Z,27.9
2017-08-27T08:32:28.091Z,27.9
2017-08-27T08:33:30.223Z,27.9
2017-08-27T08:34:31.381Z,27.9
2017-08-27T08:35:33.585Z,27.9
2017-08-27T08:36:35.715Z,27.9
2017-08-27T08:37:37.487Z,27.9
2017-08-27T08:38:38.271Z,27.9
2017-08-27T08:39:39.377Z,27.9
2017-08-27T08:40:41.516Z,27.9
2017-08-27T08:41:43.290Z,27.9
2017-08-27T08:42:45.086Z,27.9
2017-08-27T08:43:46.535Z,27.9
2017-08-27T08:44:47.643Z,27.9
2017-08-27T08:45:49.111Z,27.9
2017-08-27T08:46:51.244Z,27.9
2017-08-27T08:47:53.040Z,27.9
2017-08-27T08:48:54.888Z,27.9
2017-08-27T08:49:56.739Z,27.9
2017-08-27T08:50:57.844Z,27.9
2017-08-27T08:51:59.288Z,27.9
2017-08-27T08:53:01.419Z,28
2017-08-27T08:54:03.197Z,28
2017-08-27T08:55:05.024Z,28.1
2017-08-27T08:56:07.155Z,28
2017-08-27T08:57:08.952Z,28
2017-08-27T08:58:10.395Z,28
2017-08-27T08:59:12.528Z,28
2017-08-27T09:00:13.972Z,28
2017-08-27T09:01:15.767Z,28
2017-08-27T09:02:17.568Z,27.9
2017-08-27T09:03:19.696Z,28
2017-08-27T09:04:21.828Z,27.9
2017-08-27T09:05:23.637Z,28
2017-08-27T09:06:25.406Z,27.9
2017-08-27T09:07:27.203Z,28
2017-08-27T09:08:29.003Z,28
2017-08-27T09:09:30.780Z,28
2017-08-27T09:10:32.912Z,28
2017-08-27T09:11:34.715Z,28.1
2017-08-27T09:12:36.846Z,28
2017-08-27T09:13:38.643Z,28.1
2017-08-27T09:14:40.085Z,28
2017-08-27T09:15:41.528Z,28.1
2017-08-27T09:16:42.300Z,28
2017-08-27T09:17:44.096Z,28.1
2017-08-27T09:18:46.227Z,28.1
2017-08-27T09:19:48.359Z,28.1
2017-08-27T09:20:50.155Z,28.1
2017-08-27T09:21:51.950Z,28.1
2017-08-27T09:22:53.754Z,28.1
2017-08-27T09:23:55.883Z,28.1
2017-08-27T09:24:57.683Z,28.1
2017-08-27T09:25:59.480Z,28.1
2017-08-27T09:27:00.945Z,28.1
2017-08-27T09:28:03.078Z,28.1
2017-08-27T09:29:04.859Z,28.1
2017-08-27T09:30:06.656Z,28.1
2017-08-27T09:31:08.458Z,28.1
2017-08-27T09:32:09.910Z,28.1
2017-08-27T09:33:12.044Z,28.2
2017-08-27T09:34:14.176Z,28.1
2017-08-27T09:35:15.972Z,28.1
2017-08-27T09:36:18.107Z,28.2
2017-08-27T09:37:19.903Z,28.1
2017-08-27T09:38:21.009Z,28.1
2017-08-27T09:39:23.139Z,28.2
2017-08-27T09:40:24.935Z,28.2
2017-08-27T09:41:26.740Z,28.1
2017-08-27T09:42:28.517Z,28.2
2017-08-27T09:43:30.650Z,28.2
2017-08-27T09:44:32.088Z,28.3
2017-08-27T09:45:33.531Z,28.2
2017-08-27T09:46:34.994Z,28.3
2017-08-27T09:47:37.130Z,28.2
2017-08-27T09:48:38.575Z,28.2
2017-08-27T09:49:40.376Z,28.2
2017-08-27T09:50:42.174Z,28.2
2017-08-27T09:51:43.972Z,28.3
2017-08-27T09:52:45.081Z,28.2
2017-08-27T09:53:46.879Z,28.2
2017-08-27T09:54:49.013Z,28.3
2017-08-27T09:55:51.142Z,28.1
2017-08-27T09:56:52.586Z,28.1
2017-08-27T09:57:54.388Z,28.1
2017-08-27T09:58:55.850Z,28.1
2017-08-27T09:59:57.993Z,28.2
2017-08-27T10:00:59.459Z,28.2
2017-08-27T10:02:01.596Z,28.2
2017-08-27T10:03:03.389Z,28.3
2017-08-27T10:04:05.192Z,28.2
2017-08-27T10:05:07.327Z,28.2
2017-08-27T10:06:08.788Z,28.2
2017-08-27T10:07:10.252Z,28.3
2017-08-27T10:08:11.720Z,28.3
2017-08-27T10:09:13.505Z,28.2
2017-08-27T10:10:15.305Z,28.1
2017-08-27T10:11:16.769Z,28.2
2017-08-27T10:12:18.900Z,28.2
2017-08-27T10:13:20.342Z,28.2
2017-08-27T10:14:22.477Z,28.2
2017-08-27T10:15:24.611Z,28.2
2017-08-27T10:16:26.421Z,28.4
2017-08-27T10:17:28.232Z,28.2
2017-08-27T10:18:30.033Z,28.2
2017-08-27T10:19:31.817Z,28.3
2017-08-27T10:20:33.611Z,28.3
2017-08-27T10:21:35.463Z,28.2
2017-08-27T10:22:36.905Z,28.3
2017-08-27T10:23:38.708Z,28.2
2017-08-27T10:24:40.512Z,28.3
2017-08-27T10:25:42.290Z,28.2
2017-08-27T10:26:44.063Z,28.2
2017-08-27T10:27:45.864Z,28.2
2017-08-27T10:28:47.640Z,28.3
2017-08-27T10:29:49.423Z,28.3
2017-08-27T10:30:51.196Z,28.2
2017-08-27T10:31:53.426Z,28.2
2017-08-27T10:32:55.565Z,28.2
2017-08-27T10:33:57.356Z,28.2
2017-08-27T10:34:58.820Z,28.2
2017-08-27T10:36:00.620Z,28.3
2017-08-27T10:37:02.417Z,28.3
2017-08-27T10:38:04.549Z,28.2
2017-08-27T10:39:06.348Z,28.2
2017-08-27T10:40:07.797Z,28.2
2017-08-27T10:41:09.594Z,28.3
2017-08-27T10:42:11.036Z,28.3
2017-08-27T10:43:13.174Z,28.2
2017-08-27T10:44:15.317Z,28.2
2017-08-27T10:45:17.448Z,28.2
2017-08-27T10:46:19.244Z,28.2
2017-08-27T10:47:20.022Z,28.2
2017-08-27T10:48:22.156Z,28.2
2017-08-27T10:49:23.952Z,28.2
2017-08-27T10:50:26.084Z,28.3
2017-08-27T10:51:28.214Z,28.2
2017-08-27T10:52:30.015Z,28.4
2017-08-27T10:53:31.812Z,28.3
2017-08-27T10:54:33.251Z,28.3
2017-08-27T10:55:35.052Z,28.4
2017-08-27T10:56:36.512Z,28.4
2017-08-27T10:57:38.309Z,28.4
2017-08-27T10:58:40.107Z,28.3
2017-08-27T10:59:42.243Z,28.4
2017-08-27T11:00:43.708Z,28.3
2017-08-27T11:01:45.486Z,28.3
2017-08-27T11:02:47.618Z,28.4
2017-08-27T11:03:49.754Z,28.4
2017-08-27T11:04:51.197Z,28.3
2017-08-27T11:05:53.343Z,28.3
2017-08-27T11:06:55.464Z,28.4
2017-08-27T11:07:57.266Z,28.4
2017-08-27T11:08:59.400Z,28.3
2017-08-27T11:10:01.181Z,28.4
2017-08-27T11:11:02.625Z,28.4
2017-08-27T11:12:04.755Z,28.4
2017-08-27T11:13:06.887Z,28.3
2017-08-27T11:14:08.691Z,28.4
2017-08-27T11:15:10.490Z,28.3
2017-08-27T11:16:11.941Z,28.3
2017-08-27T11:17:13.742Z,28.4
2017-08-27T11:18:15.347Z,28.3
2017-08-27T11:19:17.128Z,28.3
2017-08-27T11:20:18.920Z,28.3
2017-08-27T11:21:20.719Z,28.4
2017-08-27T11:22:22.185Z,28.4
2017-08-27T11:23:23.980Z,28.4
2017-08-27T11:24:26.114Z,28.4
2017-08-27T11:25:27.554Z,28.3
2017-08-27T11:26:29.020Z,28.4
2017-08-27T11:27:30.481Z,28.4
2017-08-27T11:28:31.946Z,28.4
2017-08-27T11:29:33.725Z,28.3
2017-08-27T11:30:35.856Z,28.3
2017-08-27T11:31:37.653Z,28.3
2017-08-27T11:32:39.450Z,28.3
2017-08-27T11:33:40.913Z,28.4
2017-08-27T11:34:42.377Z,28.4
2017-08-27T11:35:43.839Z,28.3
2017-08-27T11:36:45.638Z,28.3
2017-08-27T11:37:47.443Z,28.4
2017-08-27T11:38:49.620Z,28.4
2017-08-27T11:39:51.429Z,28.4
2017-08-27T11:40:53.567Z,28.4
2017-08-27T11:41:55.696Z,28.4
2017-08-27T11:42:57.138Z,28.4
2017-08-27T11:43:58.914Z,28.4
2017-08-27T11:45:00.690Z,28.4
2017-08-27T11:46:02.822Z,28.4
2017-08-27T11:47:04.955Z,28.4
2017-08-27T11:48:06.400Z,28.4
2017-08-27T11:49:08.530Z,28.5
2017-08-27T11:50:10.332Z,28.4
2017-08-27T11:51:11.795Z,28.3
2017-08-27T11:52:13.594Z,28.4
2017-08-27T11:53:15.394Z,28.4
2017-08-27T11:54:16.836Z,28.4
2017-08-27T11:55:18.971Z,28.4
2017-08-27T11:56:21.103Z,28.4
2017-08-27T11:57:22.902Z,28.4
2017-08-27T11:58:24.345Z,28.4
2017-08-27T11:59:25.786Z,28.4
2017-08-27T12:00:27.583Z,28.4
2017-08-27T12:01:29.378Z,28.4
2017-08-27T12:02:30.841Z,28.4
2017-08-27T12:03:32.623Z,28.4
2017-08-27T12:04:34.067Z,28.4
2017-08-27T12:05:35.523Z,28.5
2017-08-27T12:06:37.664Z,28.5
2017-08-27T12:07:39.458Z,28.4
2017-08-27T12:08:40.919Z,28.5
2017-08-27T12:09:42.720Z,28.5
2017-08-27T12:10:44.853Z,28.5
2017-08-27T12:11:46.628Z,28.5
2017-08-27T12:12:48.074Z,28.5
2017-08-27T12:13:49.515Z,28.5
2017-08-27T12:14:51.313Z,28.5
2017-08-27T12:15:53.114Z,28.5
2017-08-27T12:16:54.554Z,28.5
2017-08-27T12:17:56.687Z,28.5
2017-08-27T12:18:58.462Z,28.5
2017-08-27T12:19:59.910Z,28.5
2017-08-27T12:21:01.378Z,28.5
2017-08-27T12:22:03.175Z,28.5
2017-08-27T12:23:05.308Z,28.5
2017-08-27T12:24:07.105Z,28.5
2017-08-27T12:25:09.234Z,28.5
2017-08-27T12:26:11.031Z,28.5
2017-08-27T12:27:12.478Z,28.6
2017-08-27T12:28:14.279Z,28.5
2017-08-27T12:29:16.058Z,28.5
2017-08-27T12:30:18.197Z,28.5
2017-08-27T12:31:19.305Z,28.5
2017-08-27T12:32:21.102Z,28.6
2017-08-27T12:33:22.897Z,28.6
2017-08-27T12:34:24.348Z,28.6
2017-08-27T12:35:26.145Z,28.6
2017-08-27T12:36:28.283Z,28.6
2017-08-27T12:37:30.082Z,28.6
2017-08-27T12:38:31.881Z,28.6
2017-08-27T12:39:34.012Z,28.5
2017-08-27T12:40:35.786Z,28.6
2017-08-27T12:41:37.588Z,28.6
2017-08-27T12:42:39.399Z,28.6
2017-08-27T12:43:41.182Z,28.6
2017-08-27T12:44:42.984Z,28.6
2017-08-27T12:45:44.115Z,28.6
2017-08-27T12:46:45.611Z,28.7
2017-08-27T12:47:47.408Z,28.6
2017-08-27T12:48:49.205Z,28.6
2017-08-27T12:49:51.003Z,28.6
2017-08-27T12:50:52.471Z,28.6
2017-08-27T12:51:54.268Z,28.5
2017-08-27T12:52:56.050Z,28.7
2017-08-27T12:53:58.187Z,28.6
2017-08-27T12:54:59.650Z,28.6
2017-08-27T12:56:01.450Z,28.7
2017-08-27T12:57:02.895Z,28.6
2017-08-27T12:58:04.693Z,28.6
2017-08-27T12:59:06.488Z,28.7
2017-08-27T13:00:08.287Z,28.6
2017-08-27T13:01:09.730Z,28.6
2017-08-27T13:02:11.860Z,28.6
2017-08-27T13:03:13.305Z,28.5
2017-08-27T13:04:15.081Z,28.6
2017-08-27T13:05:17.216Z,28.6
2017-08-27T13:06:19.047Z,28.6
2017-08-27T13:07:20.489Z,28.6
2017-08-27T13:08:22.289Z,28.5
2017-08-27T13:09:24.086Z,28.6
2017-08-27T13:10:25.553Z,28.6
2017-08-27T13:11:27.353Z,28.6
2017-08-27T13:12:28.814Z,28.6
2017-08-27T13:13:29.945Z,28.6
2017-08-27T13:14:31.744Z,28.6
2017-08-27T13:15:33.185Z,28.6
2017-08-27T13:16:34.650Z,28.5
2017-08-27T13:17:36.093Z,28.6
2017-08-27T13:18:37.555Z,28.6
2017-08-27T13:19:38.662Z,28.5
2017-08-27T13:20:40.103Z,28.6
2017-08-27T13:21:42.238Z,28.5
2017-08-27T13:22:44.041Z,28.5
2017-08-27T13:23:46.171Z,28.5
2017-08-27T13:24:47.610Z,28.5
2017-08-27T13:25:49.409Z,28.5
2017-08-27T13:26:51.207Z,28.5
2017-08-27T13:27:53.341Z,28.5
2017-08-27T13:28:55.115Z,28.5
2017-08-27T13:29:56.581Z,28.6
2017-08-27T13:30:58.354Z,28.5
2017-08-27T13:32:00.486Z,28.6
2017-08-27T13:33:01.954Z,28.6
2017-08-27T13:34:03.731Z,28.6
2017-08-27T13:35:05.863Z,28.6
2017-08-27T13:36:07.657Z,28.6
2017-08-27T13:37:09.459Z,28.7
2017-08-27T13:38:11.238Z,28.6
2017-08-27T13:39:13.035Z,28.6
2017-08-27T13:40:15.188Z,28.6
2017-08-27T13:41:16.991Z,28.6
2017-08-27T13:42:19.122Z,28.6
2017-08-27T13:43:21.254Z,28.6